Time;durP1;ratioP1;P1;durP2;ratioP2;P2;SDS_P1;SDS_P2;PMS_P1;PMS_P2;Temp;Humidity;BMP_temperature;BMP_pressure;BME280_temperature;BME280_humidity;BME280_pressure;Samples;Min_cycle;Max_cycle;Signal;HPM_P1;HPM_P2
2021/07/31 00:00:59;;;;;;;11.77;6.00;;;;;;;;;;1492886;39;20020;-64
2021/07/31 00:02:01;;;;;;;8.95;5.22;;;;;;;;;;1493035;39;20025;-64
2021/07/31 00:03:02;;;;;;;10.68;5.97;;;;;;;;;;1492843;39;20031;-64
2021/07/31 00:04:04;;;;;;;10.45;6.07;;;;;;;;;;1493029;39;20047;-64
2021/07/31 00:05:07;;;;;;;9.45;5.70;;;;;;;;;;1492706;39;20075;-63
2021/07/31 00:06:09;;;;;;;9.18;6.10;;;;;;;;;;1492912;39;20064;-64
2021/07/31 00:07:11;;;;;;;11.63;6.45;;;;;;;;;;1492855;39;20062;-64
2021/07/31 00:08:12;;;;;;;9.02;6.13;;;;;;;;;;1492745;39;20016;-64
2021/07/31 00:09:13;;;;;;;10.43;6.40;;;;;;;;;;1492728;39;20024;-64
2021/07/31 00:10:15;;;;;;;9.60;6.30;;;;;;;;;;1492772;39;20283;-64
2021/07/31 00:11:16;;;;;;;8.73;6.10;;;;;;;;;;1492723;39;20043;-63
2021/07/31 00:12:18;;;;;;;12.13;6.28;;;;;;;;;;1492867;39;20024;-63
2021/07/31 00:13:19;;;;;;;11.82;6.32;;;;;;;;;;1492706;39;20023;-64
2021/07/31 00:14:21;;;;;;;10.10;5.90;;;;;;;;;;1492942;39;20024;-64
2021/07/31 00:15:22;;;;;;;11.10;6.53;;;;;;;;;;1492890;39;20027;-63
2021/07/31 00:16:24;;;;;;;11.55;6.20;;;;;;;;;;1493693;39;20040;-64
2021/07/31 00:17:25;;;;;;;10.20;6.10;;;;;;;;;;1493341;39;20030;-63
2021/07/31 00:18:26;;;;;;;10.50;6.72;;;;;;;;;;1493609;39;20034;-63
2021/07/31 00:19:27;;;;;;;9.43;6.30;;;;;;;;;;1493309;39;20024;-63
2021/07/31 00:20:30;;;;;;;11.38;6.45;;;;;;;;;;1493489;39;20020;-64
2021/07/31 00:21:31;;;;;;;10.02;6.68;;;;;;;;;;1493426;39;20020;-63
2021/07/31 00:22:33;;;;;;;9.82;6.10;;;;;;;;;;1493521;39;20028;-63
2021/07/31 00:23:34;;;;;;;10.38;6.28;;;;;;;;;;1493315;39;20020;-64
2021/07/31 00:24:36;;;;;;;10.55;6.55;;;;;;;;;;1493448;39;20024;-63
2021/07/31 00:25:37;;;;;;;10.88;6.45;;;;;;;;;;1493447;39;20024;-63
2021/07/31 00:26:38;;;;;;;11.02;6.70;;;;;;;;;;1493321;39;20028;-63
2021/07/31 00:27:39;;;;;;;9.13;6.00;;;;;;;;;;1493317;39;20024;-63
2021/07/31 00:28:41;;;;;;;10.40;6.07;;;;;;;;;;1493686;39;20027;-63
2021/07/31 00:29:42;;;;;;;10.93;6.53;;;;;;;;;;1493251;39;20023;-63
2021/07/31 00:30:44;;;;;;;9.00;5.65;;;;;;;;;;1493535;39;20098;-63
2021/07/31 00:31:44;;;;;;;10.68;6.82;;;;;;;;;;1493448;39;20020;-63
2021/07/31 00:32:46;;;;;;;11.27;6.78;;;;;;;;;;1493573;39;20283;-63
2021/07/31 00:33:47;;;;;;;10.27;5.80;;;;;;;;;;1493387;39;20383;-63
2021/07/31 00:34:49;;;;;;;10.65;6.18;;;;;;;;;;1493520;39;20024;-64
2021/07/31 00:35:51;;;;;;;10.90;6.00;;;;;;;;;;1488593;40;20026;-63
2021/07/31 00:36:53;;;;;;;9.88;6.60;;;;;;;;;;1488864;39;20036;-63
2021/07/31 00:37:53;;;;;;;9.77;6.32;;;;;;;;;;1493287;39;20295;-63
2021/07/31 00:38:55;;;;;;;12.98;6.18;;;;;;;;;;1493544;39;20032;-63
2021/07/31 00:39:56;;;;;;;10.35;6.22;;;;;;;;;;1493262;39;20019;-63
2021/07/31 00:40:58;;;;;;;10.15;6.05;;;;;;;;;;1493391;39;20039;-63
2021/07/31 00:41:59;;;;;;;10.50;6.63;;;;;;;;;;1493345;39;20079;-63
2021/07/31 00:43:01;;;;;;;11.18;6.80;;;;;;;;;;1493375;39;20078;-63
2021/07/31 00:44:01;;;;;;;9.55;6.38;;;;;;;;;;1493287;39;20024;-63
2021/07/31 00:45:04;;;;;;;10.73;6.28;;;;;;;;;;1493515;39;20290;-63
2021/07/31 00:46:05;;;;;;;10.80;6.57;;;;;;;;;;1493367;39;20265;-63
2021/07/31 00:47:08;;;;;;;10.38;6.28;;;;;;;;;;1493346;39;20303;-63
2021/07/31 00:48:09;;;;;;;11.18;6.13;;;;;;;;;;1493275;39;20020;-63
2021/07/31 00:49:11;;;;;;;12.30;6.55;;;;;;;;;;1493410;39;20031;-63
2021/07/31 00:50:13;;;;;;;10.27;6.25;;;;;;;;;;1493258;39;20040;-63
2021/07/31 00:51:18;;;;;;;10.57;6.28;;;;;;;;;;1493410;39;20024;-63
2021/07/31 00:52:19;;;;;;;10.55;6.28;;;;;;;;;;1493228;39;20406;-64
2021/07/31 00:53:22;;;;;;;10.00;6.15;;;;;;;;;;1493478;39;20027;-63
2021/07/31 00:54:24;;;;;;;11.50;6.18;;;;;;;;;;1493315;39;20024;-63
2021/07/31 00:55:27;;;;;;;10.35;6.50;;;;;;;;;;1493332;39;20067;-64
2021/07/31 00:56:28;;;;;;;10.15;6.07;;;;;;;;;;1493185;39;20027;-63
2021/07/31 00:57:31;;;;;;;13.02;6.78;;;;;;;;;;1493321;39;20016;-63
2021/07/31 00:58:33;;;;;;;11.02;6.35;;;;;;;;;;1493321;39;20020;-64
2021/07/31 00:59:34;;;;;;;13.07;6.38;;;;;;;;;;1493407;39;20059;-63
2021/07/31 01:00:35;;;;;;;11.77;6.50;;;;;;;;;;1493304;39;20318;-63
2021/07/31 01:01:37;;;;;;;9.77;5.80;;;;;;;;;;1493366;39;20020;-63
2021/07/31 01:02:38;;;;;;;10.98;6.53;;;;;;;;;;1493226;39;20125;-63
2021/07/31 01:03:41;;;;;;;11.30;6.40;;;;;;;;;;1493419;39;20376;-63
2021/07/31 01:04:42;;;;;;;10.70;6.22;;;;;;;;;;1493174;39;20291;-63
2021/07/31 01:05:44;;;;;;;9.60;5.93;;;;;;;;;;1493270;39;20068;-63
2021/07/31 01:06:47;;;;;;;11.02;6.47;;;;;;;;;;1493161;39;20031;-64
2021/07/31 01:07:50;;;;;;;10.95;6.45;;;;;;;;;;1493484;39;20383;-63
2021/07/31 01:08:51;;;;;;;10.18;6.10;;;;;;;;;;1493156;39;20444;-63
2021/07/31 01:09:53;;;;;;;9.90;6.80;;;;;;;;;;1493266;39;20020;-63
2021/07/31 01:10:54;;;;;;;12.30;6.72;;;;;;;;;;1493295;39;20020;-63
2021/07/31 01:11:56;;;;;;;12.43;6.90;;;;;;;;;;1493604;39;20024;-63
2021/07/31 01:12:59;;;;;;;11.50;6.70;;;;;;;;;;1493284;39;20391;-64
2021/07/31 01:14:02;;;;;;;10.35;6.95;;;;;;;;;;1493385;39;20101;-63
2021/07/31 01:15:04;;;;;;;11.80;6.88;;;;;;;;;;1493169;39;20387;-64
2021/07/31 01:16:07;;;;;;;10.50;6.50;;;;;;;;;;1493362;39;20031;-63
2021/07/31 01:17:11;;;;;;;10.52;6.65;;;;;;;;;;1493138;39;20036;-63
2021/07/31 01:18:13;;;;;;;11.77;6.97;;;;;;;;;;1493346;39;20380;-64
2021/07/31 01:19:14;;;;;;;11.65;6.78;;;;;;;;;;1493339;39;20028;-63
2021/07/31 01:20:16;;;;;;;11.35;6.40;;;;;;;;;;1493330;39;20032;-63
2021/07/31 01:21:37;;;;;;;11.70;6.70;;;;;;;;;;1493219;39;20020;-63
2021/07/31 01:22:39;;;;;;;12.88;6.70;;;;;;;;;;1493456;39;20056;-63
2021/07/31 01:23:39;;;;;;;10.15;6.63;;;;;;;;;;1493145;39;20022;-63
2021/07/31 01:24:41;;;;;;;12.98;7.07;;;;;;;;;;1493321;39;20035;-63
2021/07/31 01:25:42;;;;;;;11.00;7.13;;;;;;;;;;1493162;39;20088;-63
2021/07/31 01:26:45;;;;;;;10.10;6.90;;;;;;;;;;1493095;39;20024;-63
2021/07/31 01:27:46;;;;;;;13.68;6.68;;;;;;;;;;1493298;39;20028;-63
2021/07/31 01:28:48;;;;;;;11.50;7.22;;;;;;;;;;1493316;39;20046;-63
2021/07/31 01:29:50;;;;;;;11.05;6.50;;;;;;;;;;1493182;39;20024;-63
2021/07/31 01:30:51;;;;;;;10.65;7.03;;;;;;;;;;1493202;39;20044;-63
2021/07/31 01:31:53;;;;;;;13.10;7.30;;;;;;;;;;1493442;39;20023;-63
2021/07/31 01:32:53;;;;;;;12.52;7.28;;;;;;;;;;1493241;39;20027;-64
2021/07/31 01:33:55;;;;;;;13.80;6.90;;;;;;;;;;1493197;39;20387;-63
2021/07/31 01:34:57;;;;;;;12.05;6.95;;;;;;;;;;1493300;39;20020;-63
2021/07/31 01:35:58;;;;;;;11.88;7.10;;;;;;;;;;1493228;39;20024;-63
2021/07/31 01:37:01;;;;;;;11.55;6.80;;;;;;;;;;1493445;39;20276;-63
2021/07/31 01:38:02;;;;;;;13.32;7.35;;;;;;;;;;1493094;39;20031;-63
2021/07/31 01:39:04;;;;;;;11.60;7.28;;;;;;;;;;1493323;39;20020;-63
2021/07/31 01:40:07;;;;;;;13.35;7.38;;;;;;;;;;1493231;39;20291;-63
2021/07/31 01:41:08;;;;;;;11.85;7.00;;;;;;;;;;1493337;39;20024;-63
2021/07/31 01:42:09;;;;;;;11.60;6.80;;;;;;;;;;1493223;39;20051;-64
2021/07/31 01:43:11;;;;;;;13.23;7.28;;;;;;;;;;1493146;39;20024;-63
2021/07/31 01:44:12;;;;;;;12.75;6.80;;;;;;;;;;1493164;39;20028;-63
2021/07/31 01:45:14;;;;;;;12.18;7.55;;;;;;;;;;1493152;39;20031;-63
2021/07/31 01:46:15;;;;;;;13.55;6.85;;;;;;;;;;1493027;39;20020;-63
2021/07/31 01:47:17;;;;;;;11.32;7.22;;;;;;;;;;1492990;39;20038;-63
2021/07/31 01:48:17;;;;;;;10.85;7.20;;;;;;;;;;1493188;39;20020;-63
2021/07/31 01:49:19;;;;;;;9.73;6.97;;;;;;;;;;1493117;39;20039;-63
2021/07/31 01:50:20;;;;;;;12.32;6.90;;;;;;;;;;1493068;39;20398;-63
2021/07/31 01:51:22;;;;;;;12.57;7.28;;;;;;;;;;1493321;39;20039;-64
2021/07/31 01:52:24;;;;;;;10.88;6.82;;;;;;;;;;1493188;39;20020;-63
2021/07/31 01:53:26;;;;;;;11.77;6.78;;;;;;;;;;1493352;39;20030;-63
2021/07/31 01:54:27;;;;;;;15.18;7.78;;;;;;;;;;1493122;39;20031;-64
2021/07/31 01:55:28;;;;;;;11.10;7.05;;;;;;;;;;1493284;39;20287;-63
2021/07/31 01:56:29;;;;;;;12.00;7.00;;;;;;;;;;1492978;39;20437;-63
2021/07/31 01:57:31;;;;;;;13.13;7.50;;;;;;;;;;1488619;40;20039;-63
2021/07/31 01:58:32;;;;;;;11.80;6.97;;;;;;;;;;1488617;39;20024;-63
2021/07/31 01:59:34;;;;;;;11.07;6.95;;;;;;;;;;1493371;39;20382;-63
2021/07/31 02:00:35;;;;;;;13.25;7.60;;;;;;;;;;1493142;39;20046;-63
2021/07/31 02:01:36;;;;;;;12.32;7.40;;;;;;;;;;1493183;39;20028;-63
2021/07/31 02:02:37;;;;;;;13.02;6.95;;;;;;;;;;1493051;39;20024;-64
2021/07/31 02:03:39;;;;;;;12.10;6.97;;;;;;;;;;1493358;39;20020;-64
2021/07/31 02:04:40;;;;;;;12.85;7.18;;;;;;;;;;1493071;39;20027;-63
2021/07/31 02:05:42;;;;;;;11.10;7.35;;;;;;;;;;1493340;39;20023;-63
2021/07/31 02:06:42;;;;;;;12.07;6.47;;;;;;;;;;1492939;39;20020;-64
2021/07/31 02:07:46;;;;;;;12.30;7.38;;;;;;;;;;1493270;39;20322;-63
2021/07/31 02:08:46;;;;;;;12.73;7.60;;;;;;;;;;1493102;39;20020;-63
2021/07/31 02:09:48;;;;;;;12.35;7.30;;;;;;;;;;1527189;22;21013;-61
2021/07/31 02:10:49;;;;;;;12.32;6.80;;;;;;;;;;1493211;39;20035;-59
2021/07/31 02:11:51;;;;;;;11.45;7.22;;;;;;;;;;1493114;39;20024;-59
2021/07/31 02:12:52;;;;;;;11.93;7.03;;;;;;;;;;1493131;39;20023;-59
2021/07/31 02:13:54;;;;;;;15.48;7.38;;;;;;;;;;1493266;39;20031;-57
2021/07/31 02:14:54;;;;;;;12.85;7.22;;;;;;;;;;1493244;39;20024;-59
2021/07/31 02:15:56;;;;;;;10.60;7.05;;;;;;;;;;1493284;39;20024;-57
2021/07/31 02:16:57;;;;;;;12.23;6.70;;;;;;;;;;1493217;39;20020;-58
2021/07/31 02:17:59;;;;;;;13.38;7.47;;;;;;;;;;1493294;39;20020;-59
2021/07/31 02:19:00;;;;;;;11.93;6.82;;;;;;;;;;1493020;39;20024;-59
2021/07/31 02:20:02;;;;;;;12.30;6.68;;;;;;;;;;1493102;39;20036;-59
2021/07/31 02:21:03;;;;;;;9.77;6.97;;;;;;;;;;1493111;39;20028;-59
2021/07/31 02:22:07;;;;;;;11.40;6.82;;;;;;;;;;1493069;39;20024;-59
2021/07/31 02:23:09;;;;;;;10.90;6.85;;;;;;;;;;1493188;39;20024;-59
2021/07/31 02:24:11;;;;;;;12.27;7.20;;;;;;;;;;1493151;39;20028;-59
2021/07/31 02:25:11;;;;;;;11.52;7.18;;;;;;;;;;1493223;39;20038;-59
2021/07/31 02:26:13;;;;;;;11.55;6.80;;;;;;;;;;1493261;39;20316;-61
2021/07/31 02:27:14;;;;;;;12.60;7.38;;;;;;;;;;1493058;39;20027;-59
2021/07/31 02:28:16;;;;;;;10.48;6.78;;;;;;;;;;1493321;39;20028;-59
2021/07/31 02:29:17;;;;;;;12.77;7.07;;;;;;;;;;1493006;39;20027;-59
2021/07/31 02:30:19;;;;;;;11.40;7.13;;;;;;;;;;1493029;39;20021;-59
2021/07/31 02:31:20;;;;;;;11.57;6.82;;;;;;;;;;1492985;39;20024;-60
2021/07/31 02:32:22;;;;;;;14.13;7.20;;;;;;;;;;1493234;39;20031;-59
2021/07/31 02:33:23;;;;;;;10.63;6.78;;;;;;;;;;1493077;39;20020;-59
2021/07/31 02:34:24;;;;;;;11.25;6.97;;;;;;;;;;1493030;39;20028;-59
2021/07/31 02:35:27;;;;;;;11.60;6.40;;;;;;;;;;1493176;39;20031;-59
2021/07/31 02:36:29;;;;;;;10.30;6.72;;;;;;;;;;1493184;39;20120;-61
2021/07/31 02:37:30;;;;;;;10.55;6.30;;;;;;;;;;1493105;39;20028;-59
2021/07/31 02:38:33;;;;;;;11.55;6.65;;;;;;;;;;1492657;39;20271;-59
2021/07/31 02:39:34;;;;;;;11.07;6.38;;;;;;;;;;1492874;39;20039;-59
2021/07/31 02:40:36;;;;;;;10.43;6.60;;;;;;;;;;1493103;39;20031;-59
2021/07/31 02:41:37;;;;;;;10.25;6.70;;;;;;;;;;1492962;39;20399;-59
2021/07/31 02:42:39;;;;;;;11.77;6.97;;;;;;;;;;1493119;39;20028;-59
2021/07/31 02:43:40;;;;;;;12.20;7.05;;;;;;;;;;1493083;39;20030;-59
2021/07/31 02:44:43;;;;;;;11.10;6.95;;;;;;;;;;1493088;39;20063;-59
2021/07/31 02:45:43;;;;;;;13.00;7.07;;;;;;;;;;1493007;39;20027;-59
2021/07/31 02:46:45;;;;;;;11.82;7.40;;;;;;;;;;1492931;39;20020;-59
2021/07/31 02:47:46;;;;;;;12.20;7.30;;;;;;;;;;1492929;39;20020;-59
2021/07/31 02:48:48;;;;;;;11.23;6.97;;;;;;;;;;1493035;39;20035;-59
2021/07/31 02:49:48;;;;;;;12.50;7.28;;;;;;;;;;1492882;39;20034;-59
2021/07/31 02:50:51;;;;;;;12.40;7.00;;;;;;;;;;1493127;39;20108;-59
2021/07/31 02:51:52;;;;;;;11.85;7.03;;;;;;;;;;1493011;39;20436;-59
2021/07/31 02:52:54;;;;;;;12.02;7.18;;;;;;;;;;1492900;39;20032;-61
2021/07/31 02:53:56;;;;;;;12.88;7.05;;;;;;;;;;1493048;39;20383;-61
2021/07/31 02:54:58;;;;;;;12.75;7.35;;;;;;;;;;1493051;39;20295;-60
2021/07/31 02:55:59;;;;;;;14.70;7.43;;;;;;;;;;1493061;39;20023;-59
2021/07/31 02:57:01;;;;;;;11.18;7.30;;;;;;;;;;1493089;39;20028;-61
2021/07/31 02:58:02;;;;;;;12.07;6.65;;;;;;;;;;1492932;39;20024;-59
2021/07/31 02:59:04;;;;;;;12.80;6.85;;;;;;;;;;1493275;39;20036;-59
2021/07/31 03:00:06;;;;;;;14.00;7.43;;;;;;;;;;1492901;39;20070;-61
2021/07/31 03:01:08;;;;;;;10.57;6.78;;;;;;;;;;1493127;39;20068;-59
2021/07/31 03:02:09;;;;;;;11.57;7.43;;;;;;;;;;1492911;39;20016;-58
2021/07/31 03:03:11;;;;;;;10.93;6.57;;;;;;;;;;1493110;39;20031;-61
2021/07/31 03:04:12;;;;;;;13.32;7.28;;;;;;;;;;1493075;39;20020;-59
2021/07/31 03:05:14;;;;;;;12.85;7.10;;;;;;;;;;1493153;39;20296;-60
2021/07/31 03:06:14;;;;;;;9.98;6.53;;;;;;;;;;1493021;39;20294;-59
2021/07/31 03:07:16;;;;;;;9.90;6.88;;;;;;;;;;1492991;39;20028;-59
2021/07/31 03:08:17;;;;;;;12.55;7.72;;;;;;;;;;1492896;39;20020;-59
2021/07/31 03:09:20;;;;;;;11.68;7.25;;;;;;;;;;1492899;39;20020;-59
2021/07/31 03:10:21;;;;;;;11.57;7.20;;;;;;;;;;1493057;39;20054;-60
2021/07/31 03:11:23;;;;;;;12.68;6.63;;;;;;;;;;1492959;39;20079;-60
2021/07/31 03:12:23;;;;;;;12.32;6.57;;;;;;;;;;1492978;39;20028;-59
2021/07/31 03:13:25;;;;;;;11.75;7.20;;;;;;;;;;1492998;39;20035;-59
2021/07/31 03:14:26;;;;;;;12.60;7.53;;;;;;;;;;1492969;39;20034;-59
2021/07/31 03:15:28;;;;;;;10.60;6.47;;;;;;;;;;1493162;39;20275;-59
2021/07/31 03:16:29;;;;;;;12.98;7.07;;;;;;;;;;1493046;39;20027;-60
2021/07/31 03:17:31;;;;;;;12.70;7.25;;;;;;;;;;1492984;39;20028;-59
2021/07/31 03:18:32;;;;;;;14.77;7.32;;;;;;;;;;1492875;39;20020;-60
2021/07/31 03:19:33;;;;;;;12.25;7.40;;;;;;;;;;1493054;39;20379;-61
2021/07/31 03:20:34;;;;;;;13.00;7.38;;;;;;;;;;1493000;39;20031;-59
2021/07/31 03:21:36;;;;;;;13.35;7.28;;;;;;;;;;1493031;39;20283;-60
2021/07/31 03:22:37;;;;;;;14.10;7.00;;;;;;;;;;1492852;39;20024;-59
2021/07/31 03:23:39;;;;;;;12.05;7.32;;;;;;;;;;1493121;39;20028;-60
2021/07/31 03:24:42;;;;;;;13.13;6.80;;;;;;;;;;1492883;39;20031;-59
2021/07/31 03:25:44;;;;;;;12.90;7.00;;;;;;;;;;1493006;39;20028;-59
2021/07/31 03:26:45;;;;;;;14.27;7.35;;;;;;;;;;1492857;39;20027;-60
2021/07/31 03:27:47;;;;;;;11.65;6.95;;;;;;;;;;1492930;39;20028;-60
2021/07/31 03:28:48;;;;;;;13.38;7.20;;;;;;;;;;1492944;39;20282;-59
2021/07/31 03:29:50;;;;;;;10.88;6.57;;;;;;;;;;1492888;39;20036;-61
2021/07/31 03:30:50;;;;;;;11.32;7.15;;;;;;;;;;1492839;39;20035;-59
2021/07/31 03:31:52;;;;;;;12.85;7.65;;;;;;;;;;1492981;39;20020;-59
2021/07/31 03:32:53;;;;;;;10.90;7.30;;;;;;;;;;1492871;39;20028;-59
2021/07/31 03:33:56;;;;;;;11.82;7.32;;;;;;;;;;1493162;39;20056;-59
2021/07/31 03:34:57;;;;;;;11.48;7.18;;;;;;;;;;1492982;39;20020;-59
2021/07/31 03:35:59;;;;;;;12.15;7.18;;;;;;;;;;1493096;39;20383;-61
2021/07/31 03:37:01;;;;;;;9.45;6.70;;;;;;;;;;1492840;39;20035;-61
2021/07/31 03:38:02;;;;;;;10.80;7.18;;;;;;;;;;1493161;39;20032;-59
2021/07/31 03:39:05;;;;;;;11.77;6.95;;;;;;;;;;1492850;39;20081;-60
2021/07/31 03:40:08;;;;;;;12.18;7.40;;;;;;;;;;1492879;39;20307;-59
2021/07/31 03:41:10;;;;;;;12.85;7.20;;;;;;;;;;1493014;39;20024;-60
2021/07/31 03:42:11;;;;;;;11.50;7.13;;;;;;;;;;1492853;39;20023;-59
2021/07/31 03:43:13;;;;;;;14.40;8.10;;;;;;;;;;1493061;39;20376;-60
2021/07/31 03:44:14;;;;;;;12.05;7.47;;;;;;;;;;1492888;39;20291;-59
2021/07/31 03:45:16;;;;;;;14.98;7.30;;;;;;;;;;1492998;39;20028;-61
2021/07/31 03:46:17;;;;;;;12.57;7.50;;;;;;;;;;1492984;39;20020;-59
2021/07/31 03:47:19;;;;;;;13.55;7.93;;;;;;;;;;1492780;39;20406;-59
2021/07/31 03:48:19;;;;;;;12.00;7.43;;;;;;;;;;1492914;39;20387;-59
2021/07/31 03:49:21;;;;;;;11.75;7.32;;;;;;;;;;1492750;39;20027;-61
2021/07/31 03:50:22;;;;;;;12.30;7.05;;;;;;;;;;1492127;39;20028;-59
2021/07/31 03:51:24;;;;;;;11.45;6.78;;;;;;;;;;1492868;39;20016;-59
2021/07/31 03:52:26;;;;;;;13.45;7.80;;;;;;;;;;1492960;39;20035;-59
2021/07/31 03:53:28;;;;;;;12.90;7.57;;;;;;;;;;1492906;39;20024;-59
2021/07/31 03:54:29;;;;;;;12.98;7.68;;;;;;;;;;1492838;39;20398;-59
2021/07/31 03:55:32;;;;;;;15.85;7.78;;;;;;;;;;1493044;39;20032;-59
2021/07/31 03:56:33;;;;;;;14.70;7.70;;;;;;;;;;1492717;39;20020;-60
2021/07/31 03:57:35;;;;;;;12.07;7.05;;;;;;;;;;1492854;39;20316;-59
2021/07/31 03:58:36;;;;;;;12.93;7.10;;;;;;;;;;1492939;39;20043;-59
2021/07/31 03:59:38;;;;;;;13.90;7.40;;;;;;;;;;1492913;39;20054;-59
2021/07/31 04:00:39;;;;;;;11.75;7.40;;;;;;;;;;1492832;39;20024;-58
2021/07/31 04:01:41;;;;;;;15.52;7.72;;;;;;;;;;1493014;39;20097;-59
2021/07/31 04:02:42;;;;;;;13.43;7.57;;;;;;;;;;1492833;39;20032;-59
2021/07/31 04:03:44;;;;;;;14.73;7.63;;;;;;;;;;1493122;39;20024;-60
2021/07/31 04:04:45;;;;;;;12.65;7.85;;;;;;;;;;1492908;39;20035;-59
2021/07/31 04:05:46;;;;;;;13.07;7.93;;;;;;;;;;1493079;39;20366;-59
2021/07/31 04:06:47;;;;;;;13.45;7.95;;;;;;;;;;1492924;39;20023;-61
2021/07/31 04:07:49;;;;;;;12.90;8.00;;;;;;;;;;1492920;39;20039;-60
2021/07/31 04:08:50;;;;;;;14.80;7.72;;;;;;;;;;1487967;40;20083;-59
2021/07/31 04:09:52;;;;;;;13.75;7.80;;;;;;;;;;1488105;40;20059;-61
2021/07/31 04:10:54;;;;;;;15.20;8.43;;;;;;;;;;1492759;39;20024;-59
2021/07/31 04:11:56;;;;;;;14.38;7.15;;;;;;;;;;1492956;39;20024;-59
2021/07/31 04:12:57;;;;;;;13.68;6.93;;;;;;;;;;1492803;39;20034;-59
2021/07/31 04:13:58;;;;;;;13.30;7.50;;;;;;;;;;1488032;40;20093;-60
2021/07/31 04:14:59;;;;;;;14.73;7.85;;;;;;;;;;1488174;39;20029;-59
2021/07/31 04:16:01;;;;;;;17.25;7.68;;;;;;;;;;1492878;39;20028;-59
2021/07/31 04:17:03;;;;;;;13.15;6.80;;;;;;;;;;1492897;39;20425;-59
2021/07/31 04:18:04;;;;;;;14.15;7.80;;;;;;;;;;1492982;39;20032;-59
2021/07/31 04:19:05;;;;;;;14.30;7.72;;;;;;;;;;1492690;39;20397;-59
2021/07/31 04:20:08;;;;;;;12.25;7.20;;;;;;;;;;1492811;39;20043;-59
2021/07/31 04:21:09;;;;;;;16.50;7.75;;;;;;;;;;1492681;39;20414;-59
2021/07/31 04:22:11;;;;;;;13.07;7.47;;;;;;;;;;1492728;39;20027;-59
2021/07/31 04:23:12;;;;;;;15.77;7.95;;;;;;;;;;1492661;39;20104;-59
2021/07/31 04:24:13;;;;;;;13.65;7.35;;;;;;;;;;1492927;39;20024;-59
2021/07/31 04:25:14;;;;;;;12.52;7.65;;;;;;;;;;1492781;39;20020;-60
2021/07/31 04:26:18;;;;;;;15.88;7.75;;;;;;;;;;1492873;39;20402;-60
2021/07/31 04:27:18;;;;;;;17.58;8.23;;;;;;;;;;1492870;39;20028;-59
2021/07/31 04:28:20;;;;;;;14.82;7.70;;;;;;;;;;1492818;39;20438;-59
2021/07/31 04:29:22;;;;;;;17.25;7.88;;;;;;;;;;1492568;39;20040;-61
2021/07/31 04:30:24;;;;;;;14.30;7.28;;;;;;;;;;1492791;39;20080;-59
2021/07/31 04:31:25;;;;;;;15.85;7.95;;;;;;;;;;1492688;39;20286;-59
2021/07/31 04:32:27;;;;;;;17.00;7.80;;;;;;;;;;1492697;39;20069;-60
2021/07/31 04:33:28;;;;;;;13.88;7.60;;;;;;;;;;1492645;39;20020;-59
2021/07/31 04:34:31;;;;;;;12.82;7.40;;;;;;;;;;1492909;39;20282;-59
2021/07/31 04:35:31;;;;;;;13.25;7.90;;;;;;;;;;1492675;39;20024;-59
2021/07/31 04:36:34;;;;;;;15.85;8.02;;;;;;;;;;1492785;39;20260;-59
2021/07/31 04:37:34;;;;;;;13.65;7.82;;;;;;;;;;1492635;39;20024;-59
2021/07/31 04:38:37;;;;;;;12.85;7.47;;;;;;;;;;1492817;39;20406;-59
2021/07/31 04:39:38;;;;;;;14.32;7.68;;;;;;;;;;1492647;39;20047;-59
2021/07/31 04:40:40;;;;;;;13.15;7.68;;;;;;;;;;1492848;39;20024;-59
2021/07/31 04:41:42;;;;;;;17.60;7.80;;;;;;;;;;1492658;39;20020;-59
2021/07/31 04:42:44;;;;;;;12.93;7.13;;;;;;;;;;1492797;39;20348;-59
2021/07/31 04:43:45;;;;;;;13.55;7.70;;;;;;;;;;1492679;39;20379;-59
2021/07/31 04:44:46;;;;;;;18.00;8.35;;;;;;;;;;1492873;39;20064;-59
2021/07/31 04:45:47;;;;;;;13.20;7.47;;;;;;;;;;1492661;39;20024;-60
2021/07/31 04:46:49;;;;;;;12.82;7.72;;;;;;;;;;1492733;39;20027;-59
2021/07/31 04:47:50;;;;;;;14.43;8.10;;;;;;;;;;1492694;39;20443;-59
2021/07/31 04:48:52;;;;;;;12.60;7.70;;;;;;;;;;1492940;39;20032;-59
2021/07/31 04:49:52;;;;;;;13.77;7.90;;;;;;;;;;1492710;39;20030;-60
2021/07/31 04:50:58;;;;;;;12.57;7.53;;;;;;;;;;1492811;39;20375;-59
2021/07/31 04:51:59;;;;;;;12.82;7.65;;;;;;;;;;1492604;39;20027;-59
2021/07/31 04:53:01;;;;;;;12.95;7.25;;;;;;;;;;1492855;39;20059;-59
2021/07/31 04:54:02;;;;;;;13.80;8.18;;;;;;;;;;1492641;39;20024;-59
2021/07/31 04:55:05;;;;;;;13.88;7.95;;;;;;;;;;1492746;39;20402;-59
2021/07/31 04:56:06;;;;;;;12.60;7.40;;;;;;;;;;1492594;39;20299;-59
2021/07/31 04:57:10;;;;;;;13.95;7.43;;;;;;;;;;1492744;39;20024;-59
2021/07/31 04:58:10;;;;;;;17.48;8.35;;;;;;;;;;1492744;39;20026;-59
2021/07/31 04:59:13;;;;;;;12.68;7.72;;;;;;;;;;1492689;39;20032;-60
2021/07/31 05:00:14;;;;;;;11.40;7.30;;;;;;;;;;1492714;39;20043;-59
2021/07/31 05:01:16;;;;;;;13.48;7.95;;;;;;;;;;1492719;39;20032;-61
2021/07/31 05:02:17;;;;;;;11.20;7.20;;;;;;;;;;1493252;39;20383;-61
2021/07/31 05:03:19;;;;;;;12.95;8.02;;;;;;;;;;1493390;39;20027;-60
2021/07/31 05:04:20;;;;;;;15.23;7.93;;;;;;;;;;1488564;40;20387;-61
2021/07/31 05:05:21;;;;;;;11.65;7.55;;;;;;;;;;1488677;40;20024;-59
2021/07/31 05:06:22;;;;;;;13.77;8.23;;;;;;;;;;1493320;39;20024;-61
2021/07/31 05:07:24;;;;;;;13.48;8.35;;;;;;;;;;1493482;39;20390;-59
2021/07/31 05:08:25;;;;;;;15.50;8.18;;;;;;;;;;1493201;39;20023;-59
2021/07/31 05:09:27;;;;;;;13.18;8.23;;;;;;;;;;1493232;39;20027;-60
2021/07/31 05:10:28;;;;;;;13.70;7.57;;;;;;;;;;1493446;39;20106;-60
2021/07/31 05:11:29;;;;;;;13.50;8.35;;;;;;;;;;1493362;39;20058;-59
2021/07/31 05:12:32;;;;;;;15.38;7.60;;;;;;;;;;1493270;39;20020;-59
2021/07/31 05:13:36;;;;;;;14.45;7.93;;;;;;;;;;1493451;39;20324;-59
2021/07/31 05:14:37;;;;;;;13.00;8.55;;;;;;;;;;1493198;39;20020;-59
2021/07/31 05:15:39;;;;;;;13.75;8.68;;;;;;;;;;1493289;39;20027;-59
2021/07/31 05:16:40;;;;;;;11.85;7.43;;;;;;;;;;1493155;39;20408;-59
2021/07/31 05:17:42;;;;;;;13.05;8.35;;;;;;;;;;1493460;39;20031;-59
2021/07/31 05:18:44;;;;;;;12.95;7.82;;;;;;;;;;1493320;39;20024;-61
2021/07/31 05:19:45;;;;;;;15.90;8.30;;;;;;;;;;1493256;39;20035;-60
2021/07/31 05:20:46;;;;;;;13.80;8.07;;;;;;;;;;1493153;39;20386;-59
2021/07/31 05:21:48;;;;;;;12.90;7.63;;;;;;;;;;1493347;39;20032;-59
2021/07/31 05:22:49;;;;;;;11.50;7.30;;;;;;;;;;1493140;39;20399;-61
2021/07/31 05:23:51;;;;;;;13.27;7.43;;;;;;;;;;1493283;39;20028;-60
2021/07/31 05:24:53;;;;;;;15.90;8.43;;;;;;;;;;1493263;39;20284;-60
2021/07/31 05:25:55;;;;;;;12.65;8.02;;;;;;;;;;1493394;39;20024;-59
2021/07/31 05:26:56;;;;;;;12.60;8.00;;;;;;;;;;1493172;39;20031;-59
2021/07/31 05:27:59;;;;;;;13.98;8.38;;;;;;;;;;1493143;39;20031;-59
2021/07/31 05:29:00;;;;;;;13.00;7.63;;;;;;;;;;1493128;39;20024;-60
2021/07/31 05:30:01;;;;;;;12.55;7.50;;;;;;;;;;1493404;39;20028;-61
2021/07/31 05:31:02;;;;;;;13.77;7.32;;;;;;;;;;1493115;39;20024;-61
2021/07/31 05:32:05;;;;;;;15.32;7.75;;;;;;;;;;1493214;39;20028;-61
2021/07/31 05:33:06;;;;;;;14.30;7.38;;;;;;;;;;1493221;39;20031;-59
2021/07/31 05:34:08;;;;;;;13.27;7.50;;;;;;;;;;1493172;39;20051;-60
2021/07/31 05:35:09;;;;;;;15.38;7.50;;;;;;;;;;1493168;39;20031;-59
2021/07/31 05:36:12;;;;;;;13.68;8.30;;;;;;;;;;1493440;39;20038;-59
2021/07/31 05:37:12;;;;;;;13.40;7.82;;;;;;;;;;1493213;39;20034;-59
2021/07/31 05:38:14;;;;;;;14.18;7.45;;;;;;;;;;1493214;39;20036;-60
2021/07/31 05:39:15;;;;;;;10.77;6.95;;;;;;;;;;1493250;39;20024;-61
2021/07/31 05:40:18;;;;;;;13.25;7.55;;;;;;;;;;1493418;39;20256;-60
2021/07/31 05:41:19;;;;;;;13.70;8.23;;;;;;;;;;1493135;39;20023;-59
2021/07/31 05:42:21;;;;;;;12.10;7.88;;;;;;;;;;1493272;39;20024;-60
2021/07/31 05:43:23;;;;;;;12.05;7.30;;;;;;;;;;1493201;39;20023;-59
2021/07/31 05:44:25;;;;;;;12.13;7.57;;;;;;;;;;1493243;39;20383;-59
2021/07/31 05:45:27;;;;;;;12.90;7.97;;;;;;;;;;1493298;39;20027;-59
2021/07/31 05:46:29;;;;;;;13.30;7.70;;;;;;;;;;1493321;39;20024;-59
2021/07/31 05:47:30;;;;;;;11.93;7.78;;;;;;;;;;1493276;39;20024;-60
2021/07/31 05:48:32;;;;;;;14.15;8.65;;;;;;;;;;1493240;39;20379;-59
2021/07/31 05:49:32;;;;;;;12.75;7.72;;;;;;;;;;1493203;39;20020;-60
2021/07/31 05:50:34;;;;;;;14.52;8.00;;;;;;;;;;1493283;39;20406;-59
2021/07/31 05:51:35;;;;;;;12.43;7.90;;;;;;;;;;1493247;39;20034;-59
2021/07/31 05:52:38;;;;;;;11.77;7.63;;;;;;;;;;1493178;39;20287;-59
2021/07/31 05:53:39;;;;;;;12.45;8.27;;;;;;;;;;1493325;39;20027;-60
2021/07/31 05:54:40;;;;;;;12.93;7.32;;;;;;;;;;1493292;39;20379;-61
2021/07/31 05:55:41;;;;;;;15.00;8.48;;;;;;;;;;1493250;39;20028;-59
2021/07/31 05:56:43;;;;;;;11.60;7.25;;;;;;;;;;1493275;39;20028;-59
2021/07/31 05:57:44;;;;;;;12.52;7.70;;;;;;;;;;1493197;39;20047;-59
2021/07/31 05:58:47;;;;;;;11.70;7.68;;;;;;;;;;1493190;39;20070;-61
2021/07/31 05:59:48;;;;;;;13.25;7.72;;;;;;;;;;1493041;39;20030;-59
2021/07/31 06:00:50;;;;;;;10.93;7.57;;;;;;;;;;1493114;39;20040;-60
2021/07/31 06:01:51;;;;;;;12.48;7.18;;;;;;;;;;1493154;39;20031;-60
2021/07/31 06:02:53;;;;;;;11.27;7.93;;;;;;;;;;1493208;39;20024;-60
2021/07/31 06:03:54;;;;;;;11.82;7.75;;;;;;;;;;1493119;39;20020;-59
2021/07/31 06:04:56;;;;;;;13.75;7.97;;;;;;;;;;1493416;39;20026;-59